sensor_id;sensor_type;location;lat;lon;timestamp;P1;durP1;ratioP1;P2;durP2;ratioP2
26325;SDS011;14032;52.510;7.342;2023-01-30T00:01:05;68.25;;;35.05;;
26325;SDS011;14032;52.510;7.342;2023-01-30T00:03:36;69.53;;;35.58;;
26325;SDS011;14032;52.510;7.342;2023-01-30T00:06:03;68.50;;;35.72;;
26325;SDS011;14032;52.510;7.342;2023-01-30T00:08:28;68.05;;;35.67;;
26325;SDS011;14032;52.510;7.342;2023-01-30T00:10:54;73.50;;;36.35;;
26325;SDS011;14032;52.510;7.342;2023-01-30T00:13:19;74.22;;;36.80;;
26325;SDS011;14032;52.510;7.342;2023-01-30T00:15:46;72.95;;;36.10;;
26325;SDS011;14032;52.510;7.342;2023-01-30T00:18:12;68.80;;;35.70;;
26325;SDS011;14032;52.510;7.342;2023-01-30T00:20:37;69.45;;;37.05;;
26325;SDS011;14032;52.510;7.342;2023-01-30T00:23:03;65.15;;;35.20;;
26325;SDS011;14032;52.510;7.342;2023-01-30T00:25:29;69.50;;;37.65;;
26325;SDS011;14032;52.510;7.342;2023-01-30T00:27:57;80.07;;;38.70;;
26325;SDS011;14032;52.510;7.342;2023-01-30T00:30:24;76.68;;;38.33;;
26325;SDS011;14032;52.510;7.342;2023-01-30T00:32:56;78.82;;;38.88;;
26325;SDS011;14032;52.510;7.342;2023-01-30T00:35:24;75.80;;;39.30;;
26325;SDS011;14032;52.510;7.342;2023-01-30T00:37:53;81.20;;;39.45;;
26325;SDS011;14032;52.510;7.342;2023-01-30T00:40:19;84.53;;;41.22;;
26325;SDS011;14032;52.510;7.342;2023-01-30T00:42:45;73.10;;;38.60;;
26325;SDS011;14032;52.510;7.342;2023-01-30T00:45:29;79.05;;;40.22;;
26325;SDS011;14032;52.510;7.342;2023-01-30T00:48:13;77.63;;;40.53;;
26325;SDS011;14032;52.510;7.342;2023-01-30T00:50:39;79.88;;;40.30;;
26325;SDS011;14032;52.510;7.342;2023-01-30T00:53:10;76.82;;;40.70;;
26325;SDS011;14032;52.510;7.342;2023-01-30T00:55:37;78.18;;;40.22;;
26325;SDS011;14032;52.510;7.342;2023-01-30T00:58:03;78.03;;;39.33;;
26325;SDS011;14032;52.510;7.342;2023-01-30T01:00:30;78.40;;;39.45;;
26325;SDS011;14032;52.510;7.342;2023-01-30T01:02:56;81.55;;;41.90;;
26325;SDS011;14032;52.510;7.342;2023-01-30T01:05:21;80.65;;;39.95;;
26325;SDS011;14032;52.510;7.342;2023-01-30T01:07:47;83.32;;;41.53;;
26325;SDS011;14032;52.510;7.342;2023-01-30T01:10:12;88.43;;;42.22;;
26325;SDS011;14032;52.510;7.342;2023-01-30T01:12:40;83.40;;;40.53;;
26325;SDS011;14032;52.510;7.342;2023-01-30T01:15:07;83.55;;;42.45;;
26325;SDS011;14032;52.510;7.342;2023-01-30T01:17:34;86.30;;;42.10;;
26325;SDS011;14032;52.510;7.342;2023-01-30T01:19:59;83.22;;;43.97;;
26325;SDS011;14032;52.510;7.342;2023-01-30T01:22:25;80.68;;;41.20;;
26325;SDS011;14032;52.510;7.342;2023-01-30T01:24:50;79.20;;;42.80;;
26325;SDS011;14032;52.510;7.342;2023-01-30T01:27:16;89.57;;;43.90;;
26325;SDS011;14032;52.510;7.342;2023-01-30T01:29:43;81.30;;;43.88;;
26325;SDS011;14032;52.510;7.342;2023-01-30T01:32:09;82.95;;;42.70;;
26325;SDS011;14032;52.510;7.342;2023-01-30T01:34:34;84.88;;;43.35;;
26325;SDS011;14032;52.510;7.342;2023-01-30T01:37:00;81.93;;;42.17;;
26325;SDS011;14032;52.510;7.342;2023-01-30T01:39:25;81.57;;;42.88;;
26325;SDS011;14032;52.510;7.342;2023-01-30T01:42:11;83.35;;;43.75;;
26325;SDS011;14032;52.510;7.342;2023-01-30T01:47:50;82.53;;;42.53;;
26325;SDS011;14032;52.510;7.342;2023-01-30T01:50:27;81.70;;;43.33;;
26325;SDS011;14032;52.510;7.342;2023-01-30T01:52:54;82.72;;;43.78;;
26325;SDS011;14032;52.510;7.342;2023-01-30T01:55:23;91.57;;;44.80;;
26325;SDS011;14032;52.510;7.342;2023-01-30T01:58:09;93.93;;;46.00;;
26325;SDS011;14032;52.510;7.342;2023-01-30T02:00:46;84.95;;;45.95;;
26325;SDS011;14032;52.510;7.342;2023-01-30T02:03:14;89.38;;;45.30;;
26325;SDS011;14032;52.510;7.342;2023-01-30T02:05:45;91.60;;;46.33;;
26325;SDS011;14032;52.510;7.342;2023-01-30T02:08:15;89.65;;;46.25;;
26325;SDS011;14032;52.510;7.342;2023-01-30T02:13:36;85.43;;;45.08;;
26325;SDS011;14032;52.510;7.342;2023-01-30T02:16:02;95.03;;;47.13;;
26325;SDS011;14032;52.510;7.342;2023-01-30T02:18:30;90.57;;;46.33;;
26325;SDS011;14032;52.510;7.342;2023-01-30T02:21:02;92.10;;;46.90;;
26325;SDS011;14032;52.510;7.342;2023-01-30T02:23:52;78.35;;;43.03;;
26325;SDS011;14032;52.510;7.342;2023-01-30T02:38:03;83.97;;;45.10;;
26325;SDS011;14032;52.510;7.342;2023-01-30T02:45:56;84.22;;;43.78;;
26325;SDS011;14032;52.510;7.342;2023-01-30T02:48:32;92.57;;;43.90;;
26325;SDS011;14032;52.510;7.342;2023-01-30T02:53:58;82.82;;;40.22;;
26325;SDS011;14032;52.510;7.342;2023-01-30T02:56:27;75.80;;;39.85;;
26325;SDS011;14032;52.510;7.342;2023-01-30T02:58:54;74.03;;;38.25;;
26325;SDS011;14032;52.510;7.342;2023-01-30T03:10:00;70.15;;;38.72;;
26325;SDS011;14032;52.510;7.342;2023-01-30T03:15:23;68.25;;;36.42;;
26325;SDS011;14032;52.510;7.342;2023-01-30T03:20:38;72.50;;;34.30;;
26325;SDS011;14032;52.510;7.342;2023-01-30T03:23:05;61.17;;;34.03;;
26325;SDS011;14032;52.510;7.342;2023-01-30T03:25:31;64.57;;;32.97;;
26325;SDS011;14032;52.510;7.342;2023-01-30T03:27:58;58.97;;;32.75;;
26325;SDS011;14032;52.510;7.342;2023-01-30T03:30:26;61.42;;;31.58;;
26325;SDS011;14032;52.510;7.342;2023-01-30T03:32:52;63.42;;;32.13;;
26325;SDS011;14032;52.510;7.342;2023-01-30T03:35:17;55.05;;;30.20;;
26325;SDS011;14032;52.510;7.342;2023-01-30T03:37:43;53.75;;;30.98;;
26325;SDS011;14032;52.510;7.342;2023-01-30T03:40:10;56.03;;;29.98;;
26325;SDS011;14032;52.510;7.342;2023-01-30T03:42:37;59.50;;;30.30;;
26325;SDS011;14032;52.510;7.342;2023-01-30T03:45:03;48.35;;;29.25;;
26325;SDS011;14032;52.510;7.342;2023-01-30T03:47:28;52.90;;;29.40;;
26325;SDS011;14032;52.510;7.342;2023-01-30T03:49:54;48.13;;;26.92;;
26325;SDS011;14032;52.510;7.342;2023-01-30T03:52:20;45.95;;;25.55;;
26325;SDS011;14032;52.510;7.342;2023-01-30T03:54:45;47.22;;;26.40;;
26325;SDS011;14032;52.510;7.342;2023-01-30T03:57:11;49.05;;;26.92;;
26325;SDS011;14032;52.510;7.342;2023-01-30T03:59:36;44.63;;;25.88;;
26325;SDS011;14032;52.510;7.342;2023-01-30T04:02:02;49.97;;;26.58;;
26325;SDS011;14032;52.510;7.342;2023-01-30T04:04:27;43.75;;;26.05;;
26325;SDS011;14032;52.510;7.342;2023-01-30T04:06:53;40.63;;;23.23;;
26325;SDS011;14032;52.510;7.342;2023-01-30T04:09:20;38.83;;;22.02;;
26325;SDS011;14032;52.510;7.342;2023-01-30T04:11:45;39.92;;;21.52;;
26325;SDS011;14032;52.510;7.342;2023-01-30T04:14:11;34.72;;;20.90;;
26325;SDS011;14032;52.510;7.342;2023-01-30T04:16:37;32.58;;;18.90;;
26325;SDS011;14032;52.510;7.342;2023-01-30T04:19:02;33.30;;;17.73;;
26325;SDS011;14032;52.510;7.342;2023-01-30T04:21:28;31.73;;;16.88;;
26325;SDS011;14032;52.510;7.342;2023-01-30T04:23:53;25.25;;;14.43;;
26325;SDS011;14032;52.510;7.342;2023-01-30T04:26:19;30.73;;;14.20;;
26325;SDS011;14032;52.510;7.342;2023-01-30T04:28:44;21.77;;;9.82;;
26325;SDS011;14032;52.510;7.342;2023-01-30T04:31:10;20.27;;;8.00;;
26325;SDS011;14032;52.510;7.342;2023-01-30T04:33:36;28.33;;;7.97;;
26325;SDS011;14032;52.510;7.342;2023-01-30T04:36:04;23.27;;;7.57;;
26325;SDS011;14032;52.510;7.342;2023-01-30T04:38:30;25.90;;;7.50;;
26325;SDS011;14032;52.510;7.342;2023-01-30T04:40:57;23.30;;;7.30;;
26325;SDS011;14032;52.510;7.342;2023-01-30T04:43:23;20.50;;;7.35;;
26325;SDS011;14032;52.510;7.342;2023-01-30T04:45:50;24.58;;;7.70;;
26325;SDS011;14032;52.510;7.342;2023-01-30T04:48:17;25.40;;;7.38;;
26325;SDS011;14032;52.510;7.342;2023-01-30T04:50:46;24.77;;;6.78;;
26325;SDS011;14032;52.510;7.342;2023-01-30T04:53:12;24.67;;;6.82;;
26325;SDS011;14032;52.510;7.342;2023-01-30T04:55:38;27.55;;;7.15;;
26325;SDS011;14032;52.510;7.342;2023-01-30T04:58:04;29.58;;;7.18;;
26325;SDS011;14032;52.510;7.342;2023-01-30T05:00:30;24.38;;;6.55;;
26325;SDS011;14032;52.510;7.342;2023-01-30T05:02:56;23.60;;;7.05;;
26325;SDS011;14032;52.510;7.342;2023-01-30T05:05:22;25.58;;;7.30;;
26325;SDS011;14032;52.510;7.342;2023-01-30T05:07:47;19.73;;;6.20;;
26325;SDS011;14032;52.510;7.342;2023-01-30T05:10:13;30.92;;;6.40;;
26325;SDS011;14032;52.510;7.342;2023-01-30T05:12:39;25.77;;;6.57;;
26325;SDS011;14032;52.510;7.342;2023-01-30T05:15:05;27.60;;;6.28;;
26325;SDS011;14032;52.510;7.342;2023-01-30T05:17:31;41.45;;;6.85;;
26325;SDS011;14032;52.510;7.342;2023-01-30T05:19:57;25.73;;;5.90;;
26325;SDS011;14032;52.510;7.342;2023-01-30T05:22:23;30.92;;;7.03;;
26325;SDS011;14032;52.510;7.342;2023-01-30T05:24:48;32.28;;;5.93;;
26325;SDS011;14032;52.510;7.342;2023-01-30T05:27:15;30.20;;;5.80;;
26325;SDS011;14032;52.510;7.342;2023-01-30T05:29:41;26.08;;;6.40;;
26325;SDS011;14032;52.510;7.342;2023-01-30T05:32:06;28.23;;;6.57;;
26325;SDS011;14032;52.510;7.342;2023-01-30T05:34:34;30.83;;;5.93;;
26325;SDS011;14032;52.510;7.342;2023-01-30T05:37:00;29.35;;;5.68;;
26325;SDS011;14032;52.510;7.342;2023-01-30T05:39:25;29.75;;;5.70;;
26325;SDS011;14032;52.510;7.342;2023-01-30T05:41:51;27.45;;;5.28;;
26325;SDS011;14032;52.510;7.342;2023-01-30T05:44:16;32.35;;;6.38;;
26325;SDS011;14032;52.510;7.342;2023-01-30T05:46:42;26.80;;;5.63;;
26325;SDS011;14032;52.510;7.342;2023-01-30T05:49:07;26.23;;;5.30;;
26325;SDS011;14032;52.510;7.342;2023-01-30T05:51:33;27.88;;;5.32;;
26325;SDS011;14032;52.510;7.342;2023-01-30T05:53:58;30.10;;;5.90;;
26325;SDS011;14032;52.510;7.342;2023-01-30T05:56:24;31.45;;;5.43;;
26325;SDS011;14032;52.510;7.342;2023-01-30T05:58:50;26.77;;;4.78;;
26325;SDS011;14032;52.510;7.342;2023-01-30T06:01:20;30.55;;;5.05;;
26325;SDS011;14032;52.510;7.342;2023-01-30T06:03:47;26.25;;;4.63;;
26325;SDS011;14032;52.510;7.342;2023-01-30T06:06:15;30.63;;;5.85;;
26325;SDS011;14032;52.510;7.342;2023-01-30T06:08:40;23.27;;;4.75;;
26325;SDS011;14032;52.510;7.342;2023-01-30T06:11:07;28.50;;;5.10;;
26325;SDS011;14032;52.510;7.342;2023-01-30T06:13:35;27.38;;;4.32;;
26325;SDS011;14032;52.510;7.342;2023-01-30T06:16:01;27.80;;;4.30;;
26325;SDS011;14032;52.510;7.342;2023-01-30T06:18:26;31.63;;;5.40;;
26325;SDS011;14032;52.510;7.342;2023-01-30T06:20:52;22.95;;;3.83;;
26325;SDS011;14032;52.510;7.342;2023-01-30T06:23:19;27.70;;;4.25;;
26325;SDS011;14032;52.510;7.342;2023-01-30T06:25:46;29.42;;;4.38;;
26325;SDS011;14032;52.510;7.342;2023-01-30T06:28:13;28.10;;;5.00;;
26325;SDS011;14032;52.510;7.342;2023-01-30T06:30:39;29.55;;;4.70;;
26325;SDS011;14032;52.510;7.342;2023-01-30T06:33:05;34.15;;;5.22;;
26325;SDS011;14032;52.510;7.342;2023-01-30T06:35:31;28.60;;;4.10;;
26325;SDS011;14032;52.510;7.342;2023-01-30T06:37:56;27.60;;;4.47;;
26325;SDS011;14032;52.510;7.342;2023-01-30T06:40:22;34.75;;;5.40;;
26325;SDS011;14032;52.510;7.342;2023-01-30T06:42:48;22.23;;;4.28;;
26325;SDS011;14032;52.510;7.342;2023-01-30T06:45:14;29.50;;;5.25;;
26325;SDS011;14032;52.510;7.342;2023-01-30T06:47:48;25.95;;;3.85;;
26325;SDS011;14032;52.510;7.342;2023-01-30T06:50:15;20.25;;;3.72;;
26325;SDS011;14032;52.510;7.342;2023-01-30T06:52:42;31.90;;;3.90;;
26325;SDS011;14032;52.510;7.342;2023-01-30T06:55:10;23.27;;;3.92;;
26325;SDS011;14032;52.510;7.342;2023-01-30T06:57:36;25.30;;;4.43;;
26325;SDS011;14032;52.510;7.342;2023-01-30T07:00:05;32.35;;;4.32;;
26325;SDS011;14032;52.510;7.342;2023-01-30T07:02:34;32.92;;;4.60;;
26325;SDS011;14032;52.510;7.342;2023-01-30T07:05:00;28.80;;;4.38;;
26325;SDS011;14032;52.510;7.342;2023-01-30T07:07:26;23.48;;;4.50;;
26325;SDS011;14032;52.510;7.342;2023-01-30T07:09:53;34.17;;;5.15;;
26325;SDS011;14032;52.510;7.342;2023-01-30T07:12:18;26.08;;;4.22;;
26325;SDS011;14032;52.510;7.342;2023-01-30T07:14:44;26.05;;;4.32;;
26325;SDS011;14032;52.510;7.342;2023-01-30T07:17:10;38.40;;;5.40;;
26325;SDS011;14032;52.510;7.342;2023-01-30T07:19:35;32.17;;;4.32;;
26325;SDS011;14032;52.510;7.342;2023-01-30T07:22:03;23.48;;;4.13;;
26325;SDS011;14032;52.510;7.342;2023-01-30T07:24:29;34.38;;;4.85;;
26325;SDS011;14032;52.510;7.342;2023-01-30T07:26:54;27.58;;;4.35;;
26325;SDS011;14032;52.510;7.342;2023-01-30T07:29:20;30.83;;;4.72;;
26325;SDS011;14032;52.510;7.342;2023-01-30T07:31:46;34.85;;;4.90;;
26325;SDS011;14032;52.510;7.342;2023-01-30T07:34:11;33.95;;;4.40;;
26325;SDS011;14032;52.510;7.342;2023-01-30T07:36:37;33.33;;;5.13;;
26325;SDS011;14032;52.510;7.342;2023-01-30T07:39:03;33.35;;;4.85;;
26325;SDS011;14032;52.510;7.342;2023-01-30T07:41:29;35.83;;;4.55;;
26325;SDS011;14032;52.510;7.342;2023-01-30T07:43:55;25.35;;;4.03;;
26325;SDS011;14032;52.510;7.342;2023-01-30T07:46:20;24.77;;;4.57;;
26325;SDS011;14032;52.510;7.342;2023-01-30T07:48:46;30.85;;;4.05;;
26325;SDS011;14032;52.510;7.342;2023-01-30T07:51:12;31.75;;;4.88;;
26325;SDS011;14032;52.510;7.342;2023-01-30T07:53:38;30.20;;;4.40;;
26325;SDS011;14032;52.510;7.342;2023-01-30T07:56:10;29.38;;;4.70;;
26325;SDS011;14032;52.510;7.342;2023-01-30T07:58:42;20.75;;;4.22;;
26325;SDS011;14032;52.510;7.342;2023-01-30T08:01:08;34.88;;;4.78;;
26325;SDS011;14032;52.510;7.342;2023-01-30T08:03:33;32.60;;;3.85;;
26325;SDS011;14032;52.510;7.342;2023-01-30T08:05:59;33.85;;;5.05;;
26325;SDS011;14032;52.510;7.342;2023-01-30T08:08:24;33.50;;;4.95;;
26325;SDS011;14032;52.510;7.342;2023-01-30T08:10:50;33.30;;;4.63;;
26325;SDS011;14032;52.510;7.342;2023-01-30T08:13:16;37.00;;;4.85;;
26325;SDS011;14032;52.510;7.342;2023-01-30T08:15:42;25.10;;;4.10;;
26325;SDS011;14032;52.510;7.342;2023-01-30T08:18:08;30.00;;;4.15;;
26325;SDS011;14032;52.510;7.342;2023-01-30T08:20:34;28.98;;;4.30;;
26325;SDS011;14032;52.510;7.342;2023-01-30T08:23:00;37.35;;;4.53;;
26325;SDS011;14032;52.510;7.342;2023-01-30T08:25:27;32.30;;;5.53;;
26325;SDS011;14032;52.510;7.342;2023-01-30T08:27:53;35.30;;;5.35;;
26325;SDS011;14032;52.510;7.342;2023-01-30T08:30:21;34.42;;;4.80;;
26325;SDS011;14032;52.510;7.342;2023-01-30T08:32:47;30.70;;;4.90;;
26325;SDS011;14032;52.510;7.342;2023-01-30T08:35:13;35.80;;;4.57;;
26325;SDS011;14032;52.510;7.342;2023-01-30T08:37:39;29.23;;;4.38;;
26325;SDS011;14032;52.510;7.342;2023-01-30T08:40:05;29.00;;;5.55;;
26325;SDS011;14032;52.510;7.342;2023-01-30T08:42:32;36.05;;;5.90;;
26325;SDS011;14032;52.510;7.342;2023-01-30T08:44:57;32.03;;;4.53;;
26325;SDS011;14032;52.510;7.342;2023-01-30T08:47:23;33.08;;;4.72;;
26325;SDS011;14032;52.510;7.342;2023-01-30T08:49:51;32.00;;;4.40;;
26325;SDS011;14032;52.510;7.342;2023-01-30T08:52:20;27.38;;;4.70;;
26325;SDS011;14032;52.510;7.342;2023-01-30T08:54:46;38.88;;;5.20;;
26325;SDS011;14032;52.510;7.342;2023-01-30T08:57:13;33.60;;;5.03;;
26325;SDS011;14032;52.510;7.342;2023-01-30T08:59:39;31.42;;;4.85;;
26325;SDS011;14032;52.510;7.342;2023-01-30T09:02:09;28.63;;;4.93;;
26325;SDS011;14032;52.510;7.342;2023-01-30T09:04:35;30.27;;;4.55;;
26325;SDS011;14032;52.510;7.342;2023-01-30T09:07:01;28.17;;;4.75;;
26325;SDS011;14032;52.510;7.342;2023-01-30T09:09:27;28.48;;;4.35;;
26325;SDS011;14032;52.510;7.342;2023-01-30T09:11:53;27.30;;;4.60;;
26325;SDS011;14032;52.510;7.342;2023-01-30T09:14:19;25.63;;;4.55;;
26325;SDS011;14032;52.510;7.342;2023-01-30T09:16:48;33.20;;;5.18;;
26325;SDS011;14032;52.510;7.342;2023-01-30T09:19:26;37.55;;;5.70;;
26325;SDS011;14032;52.510;7.342;2023-01-30T09:21:52;32.03;;;5.15;;
26325;SDS011;14032;52.510;7.342;2023-01-30T09:24:20;28.55;;;4.75;;
26325;SDS011;14032;52.510;7.342;2023-01-30T09:26:50;41.00;;;5.68;;
26325;SDS011;14032;52.510;7.342;2023-01-30T09:29:21;37.65;;;5.57;;
26325;SDS011;14032;52.510;7.342;2023-01-30T09:31:47;25.35;;;4.70;;
26325;SDS011;14032;52.510;7.342;2023-01-30T09:34:13;31.67;;;4.97;;
26325;SDS011;14032;52.510;7.342;2023-01-30T09:36:39;36.13;;;5.68;;
26325;SDS011;14032;52.510;7.342;2023-01-30T09:39:05;25.90;;;4.68;;
26325;SDS011;14032;52.510;7.342;2023-01-30T09:47:31;34.03;;;4.95;;
26325;SDS011;14032;52.510;7.342;2023-01-30T09:50:10;29.75;;;5.35;;
26325;SDS011;14032;52.510;7.342;2023-01-30T09:53:17;31.45;;;5.10;;
26325;SDS011;14032;52.510;7.342;2023-01-30T09:56:04;27.58;;;4.10;;
26325;SDS011;14032;52.510;7.342;2023-01-30T09:58:40;32.72;;;5.30;;
26325;SDS011;14032;52.510;7.342;2023-01-30T10:01:10;33.50;;;4.72;;
26325;SDS011;14032;52.510;7.342;2023-01-30T10:03:51;27.50;;;4.00;;
26325;SDS011;14032;52.510;7.342;2023-01-30T10:06:26;35.55;;;4.95;;
26325;SDS011;14032;52.510;7.342;2023-01-30T10:11:30;28.27;;;4.15;;
26325;SDS011;14032;52.510;7.342;2023-01-30T10:25:57;31.50;;;5.30;;
26325;SDS011;14032;52.510;7.342;2023-01-30T10:29:05;26.70;;;4.40;;
26325;SDS011;14032;52.510;7.342;2023-01-30T10:31:44;24.30;;;4.10;;
26325;SDS011;14032;52.510;7.342;2023-01-30T10:34:18;29.02;;;4.68;;
26325;SDS011;14032;52.510;7.342;2023-01-30T10:36:47;29.33;;;4.18;;
26325;SDS011;14032;52.510;7.342;2023-01-30T10:39:21;29.95;;;4.75;;
26325;SDS011;14032;52.510;7.342;2023-01-30T10:42:04;30.63;;;5.20;;
26325;SDS011;14032;52.510;7.342;2023-01-30T10:44:32;30.10;;;4.68;;
26325;SDS011;14032;52.510;7.342;2023-01-30T10:49:50;32.33;;;4.30;;
26325;SDS011;14032;52.510;7.342;2023-01-30T10:52:20;32.38;;;4.88;;
26325;SDS011;14032;52.510;7.342;2023-01-30T10:57:49;34.30;;;5.22;;
26325;SDS011;14032;52.510;7.342;2023-01-30T11:00:26;33.38;;;5.03;;
26325;SDS011;14032;52.510;7.342;2023-01-30T11:03:03;33.70;;;4.68;;
26325;SDS011;14032;52.510;7.342;2023-01-30T11:05:35;22.75;;;4.05;;
26325;SDS011;14032;52.510;7.342;2023-01-30T11:08:48;25.63;;;4.88;;
26325;SDS011;14032;52.510;7.342;2023-01-30T11:10:57;29.88;;;4.88;;
26325;SDS011;14032;52.510;7.342;2023-01-30T11:13:27;33.80;;;4.70;;
26325;SDS011;14032;52.510;7.342;2023-01-30T11:15:55;22.17;;;3.78;;
26325;SDS011;14032;52.510;7.342;2023-01-30T11:18:24;31.35;;;5.32;;
26325;SDS011;14032;52.510;7.342;2023-01-30T11:21:04;29.15;;;4.68;;
26325;SDS011;14032;52.510;7.342;2023-01-30T11:23:39;25.90;;;4.47;;
26325;SDS011;14032;52.510;7.342;2023-01-30T11:26:10;43.30;;;5.25;;
26325;SDS011;14032;52.510;7.342;2023-01-30T11:28:45;25.95;;;4.68;;
26325;SDS011;14032;52.510;7.342;2023-01-30T11:31:21;35.83;;;4.18;;
26325;SDS011;14032;52.510;7.342;2023-01-30T11:34:00;19.60;;;4.70;;
26325;SDS011;14032;52.510;7.342;2023-01-30T11:36:30;36.08;;;5.78;;
26325;SDS011;14032;52.510;7.342;2023-01-30T11:38:58;32.13;;;4.40;;
26325;SDS011;14032;52.510;7.342;2023-01-30T11:41:29;32.50;;;4.72;;
26325;SDS011;14032;52.510;7.342;2023-01-30T11:44:02;36.08;;;5.15;;
26325;SDS011;14032;52.510;7.342;2023-01-30T11:46:30;30.63;;;5.13;;
26325;SDS011;14032;52.510;7.342;2023-01-30T11:49:01;35.42;;;4.53;;
26325;SDS011;14032;52.510;7.342;2023-01-30T11:51:30;31.17;;;4.68;;
26325;SDS011;14032;52.510;7.342;2023-01-30T11:56:38;32.58;;;4.95;;
26325;SDS011;14032;52.510;7.342;2023-01-30T11:59:20;29.05;;;5.50;;
26325;SDS011;14032;52.510;7.342;2023-01-30T12:01:47;30.00;;;4.45;;
26325;SDS011;14032;52.510;7.342;2023-01-30T12:04:13;31.58;;;4.70;;
26325;SDS011;14032;52.510;7.342;2023-01-30T12:06:41;32.80;;;5.07;;
26325;SDS011;14032;52.510;7.342;2023-01-30T12:12:29;32.67;;;4.80;;
26325;SDS011;14032;52.510;7.342;2023-01-30T12:15:24;27.35;;;4.82;;
26325;SDS011;14032;52.510;7.342;2023-01-30T12:18:12;35.45;;;5.22;;
26325;SDS011;14032;52.510;7.342;2023-01-30T12:23:48;36.17;;;4.65;;
26325;SDS011;14032;52.510;7.342;2023-01-30T12:26:25;27.02;;;4.18;;
26325;SDS011;14032;52.510;7.342;2023-01-30T12:31:43;26.73;;;4.13;;
26325;SDS011;14032;52.510;7.342;2023-01-30T12:34:29;28.38;;;4.22;;
26325;SDS011;14032;52.510;7.342;2023-01-30T12:53:53;25.30;;;3.53;;
26325;SDS011;14032;52.510;7.342;2023-01-30T12:56:31;24.08;;;3.28;;
26325;SDS011;14032;52.510;7.342;2023-01-30T12:59:10;24.08;;;3.35;;
26325;SDS011;14032;52.510;7.342;2023-01-30T13:01:52;22.42;;;2.83;;
26325;SDS011;14032;52.510;7.342;2023-01-30T13:15:24;21.05;;;3.03;;
26325;SDS011;14032;52.510;7.342;2023-01-30T13:18:19;13.18;;;2.97;;
26325;SDS011;14032;52.510;7.342;2023-01-30T13:21:07;20.17;;;3.53;;
26325;SDS011;14032;52.510;7.342;2023-01-30T13:26:30;18.85;;;2.38;;
26325;SDS011;14032;52.510;7.342;2023-01-30T13:29:00;24.15;;;3.10;;
26325;SDS011;14032;52.510;7.342;2023-01-30T13:31:30;19.02;;;3.08;;
26325;SDS011;14032;52.510;7.342;2023-01-30T13:36:45;17.73;;;3.05;;
26325;SDS011;14032;52.510;7.342;2023-01-30T13:39:29;17.23;;;2.67;;
26325;SDS011;14032;52.510;7.342;2023-01-30T13:41:56;15.20;;;2.22;;
26325;SDS011;14032;52.510;7.342;2023-01-30T13:44:25;17.02;;;3.20;;
26325;SDS011;14032;52.510;7.342;2023-01-30T13:46:54;22.95;;;3.25;;
26325;SDS011;14032;52.510;7.342;2023-01-30T13:49:36;16.70;;;3.47;;
26325;SDS011;14032;52.510;7.342;2023-01-30T13:52:22;21.52;;;3.58;;
26325;SDS011;14032;52.510;7.342;2023-01-30T13:57:49;21.17;;;3.25;;
26325;SDS011;14032;52.510;7.342;2023-01-30T14:00:37;17.67;;;2.83;;
26325;SDS011;14032;52.510;7.342;2023-01-30T14:08:20;21.13;;;3.00;;
26325;SDS011;14032;52.510;7.342;2023-01-30T14:10:47;21.00;;;3.60;;
26325;SDS011;14032;52.510;7.342;2023-01-30T14:13:14;18.80;;;2.72;;
26325;SDS011;14032;52.510;7.342;2023-01-30T14:16:24;26.20;;;3.08;;
26325;SDS011;14032;52.510;7.342;2023-01-30T14:18:31;20.75;;;3.55;;
26325;SDS011;14032;52.510;7.342;2023-01-30T14:21:33;24.58;;;4.05;;
26325;SDS011;14032;52.510;7.342;2023-01-30T14:23:53;22.23;;;3.03;;
26325;SDS011;14032;52.510;7.342;2023-01-30T14:29:48;18.17;;;2.83;;
26325;SDS011;14032;52.510;7.342;2023-01-30T14:40:02;22.08;;;4.05;;
26325;SDS011;14032;52.510;7.342;2023-01-30T14:54:41;26.65;;;4.38;;
26325;SDS011;14032;52.510;7.342;2023-01-30T14:59:15;40.17;;;4.95;;
26325;SDS011;14032;52.510;7.342;2023-01-30T15:01:56;36.88;;;5.68;;
26325;SDS011;14032;52.510;7.342;2023-01-30T15:04:25;29.40;;;4.90;;
26325;SDS011;14032;52.510;7.342;2023-01-30T15:06:57;30.40;;;5.25;;
26325;SDS011;14032;52.510;7.342;2023-01-30T15:09:26;30.55;;;4.80;;
26325;SDS011;14032;52.510;7.342;2023-01-30T15:12:02;30.20;;;4.82;;
26325;SDS011;14032;52.510;7.342;2023-01-30T15:20:01;28.70;;;5.28;;
26325;SDS011;14032;52.510;7.342;2023-01-30T15:30:41;33.42;;;5.50;;
26325;SDS011;14032;52.510;7.342;2023-01-30T15:33:21;34.13;;;5.55;;
26325;SDS011;14032;52.510;7.342;2023-01-30T15:35:50;33.97;;;4.57;;
26325;SDS011;14032;52.510;7.342;2023-01-30T15:38:26;41.90;;;6.28;;
26325;SDS011;14032;52.510;7.342;2023-01-30T15:40:58;45.13;;;6.50;;
26325;SDS011;14032;52.510;7.342;2023-01-30T15:51:38;33.28;;;5.20;;
26325;SDS011;14032;52.510;7.342;2023-01-30T15:54:08;39.08;;;6.30;;
26325;SDS011;14032;52.510;7.342;2023-01-30T15:56:35;32.05;;;5.10;;
26325;SDS011;14032;52.510;7.342;2023-01-30T15:59:04;40.65;;;5.70;;
26325;SDS011;14032;52.510;7.342;2023-01-30T16:01:31;33.67;;;4.60;;
26325;SDS011;14032;52.510;7.342;2023-01-30T16:03:56;34.47;;;6.07;;
26325;SDS011;14032;52.510;7.342;2023-01-30T16:09:04;26.13;;;5.15;;
26325;SDS011;14032;52.510;7.342;2023-01-30T16:11:40;31.88;;;5.30;;
26325;SDS011;14032;52.510;7.342;2023-01-30T16:14:13;43.13;;;6.22;;
26325;SDS011;14032;52.510;7.342;2023-01-30T16:16:42;37.67;;;4.93;;
26325;SDS011;14032;52.510;7.342;2023-01-30T16:19:25;39.00;;;5.07;;
26325;SDS011;14032;52.510;7.342;2023-01-30T16:21:57;37.88;;;4.97;;
26325;SDS011;14032;52.510;7.342;2023-01-30T16:24:29;32.67;;;5.72;;
26325;SDS011;14032;52.510;7.342;2023-01-30T16:26:57;37.03;;;5.88;;
26325;SDS011;14032;52.510;7.342;2023-01-30T16:29:26;38.42;;;5.35;;
26325;SDS011;14032;52.510;7.342;2023-01-30T16:31:54;35.60;;;6.00;;
26325;SDS011;14032;52.510;7.342;2023-01-30T16:36:49;39.25;;;5.78;;
26325;SDS011;14032;52.510;7.342;2023-01-30T16:39:31;33.83;;;4.72;;
26325;SDS011;14032;52.510;7.342;2023-01-30T16:41:59;34.80;;;5.20;;
26325;SDS011;14032;52.510;7.342;2023-01-30T16:44:30;36.15;;;5.25;;
26325;SDS011;14032;52.510;7.342;2023-01-30T16:54:28;24.13;;;3.88;;
26325;SDS011;14032;52.510;7.342;2023-01-30T16:56:56;26.55;;;4.20;;
26325;SDS011;14032;52.510;7.342;2023-01-30T16:59:33;32.35;;;4.50;;
26325;SDS011;14032;52.510;7.342;2023-01-30T17:02:00;26.30;;;5.18;;
26325;SDS011;14032;52.510;7.342;2023-01-30T17:04:29;27.83;;;6.45;;
26325;SDS011;14032;52.510;7.342;2023-01-30T17:07:00;26.98;;;4.10;;
26325;SDS011;14032;52.510;7.342;2023-01-30T17:09:42;29.50;;;3.60;;
26325;SDS011;14032;52.510;7.342;2023-01-30T17:12:32;28.50;;;4.47;;
26325;SDS011;14032;52.510;7.342;2023-01-30T17:17:41;35.28;;;5.47;;
26325;SDS011;14032;52.510;7.342;2023-01-30T17:20:07;33.17;;;5.43;;
26325;SDS011;14032;52.510;7.342;2023-01-30T17:22:34;35.65;;;5.35;;
26325;SDS011;14032;52.510;7.342;2023-01-30T17:25:02;43.85;;;5.10;;
26325;SDS011;14032;52.510;7.342;2023-01-30T17:27:31;35.38;;;5.07;;
26325;SDS011;14032;52.510;7.342;2023-01-30T17:29:57;34.67;;;5.07;;
26325;SDS011;14032;52.510;7.342;2023-01-30T17:32:23;35.20;;;5.40;;
26325;SDS011;14032;52.510;7.342;2023-01-30T17:34:49;31.90;;;4.55;;
26325;SDS011;14032;52.510;7.342;2023-01-30T17:37:19;28.63;;;4.68;;
26325;SDS011;14032;52.510;7.342;2023-01-30T17:39:46;35.30;;;5.40;;
26325;SDS011;14032;52.510;7.342;2023-01-30T17:42:12;41.78;;;5.38;;
26325;SDS011;14032;52.510;7.342;2023-01-30T17:44:39;34.45;;;4.97;;
26325;SDS011;14032;52.510;7.342;2023-01-30T17:47:05;28.20;;;5.20;;